createdAt,value
2019-04-23T00:00:56.218Z,5.07
2019-04-23T00:03:28.747Z,4.93
2019-04-23T00:05:55.181Z,5.67
2019-04-23T00:08:36.244Z,3.67
2019-04-23T00:11:05.366Z,4.93
2019-04-23T00:13:39.340Z,5.30
2019-04-23T00:16:17.914Z,4.90
2019-04-23T00:18:42.635Z,5.47
2019-04-23T00:21:43.005Z,5.67
2019-04-23T00:24:46.624Z,5.67
2019-04-23T00:27:16.741Z,4.97
2019-04-23T00:29:38.578Z,5.20
2019-04-23T00:32:20.638Z,6.10
2019-04-23T00:37:18.762Z,4.33
2019-04-23T00:39:46.757Z,5.13
2019-04-23T00:42:22.091Z,4.97
2019-04-23T00:44:51.567Z,5.60
2019-04-23T00:47:28.331Z,5.00
2019-04-23T00:50:06.372Z,5.50
2019-04-23T00:55:10.998Z,6.00
2019-04-23T00:57:35.947Z,5.20
2019-04-23T01:00:20.393Z,5.50
2019-04-23T01:07:44.576Z,4.60
2019-04-23T01:10:20.199Z,5.17
2019-04-23T01:15:32.840Z,4.43
2019-04-23T01:18:02.191Z,5.67
2019-04-23T01:20:49.429Z,5.93
2019-04-23T01:22:59.045Z,5.60
2019-04-23T01:25:51.666Z,5.07
2019-04-23T01:28:40.011Z,4.47
2019-04-23T01:31:09.337Z,4.53
2019-04-23T01:33:53.152Z,4.90
2019-04-23T01:38:45.521Z,3.80
2019-04-23T01:41:20.508Z,4.77
2019-04-23T01:43:49.227Z,4.50
2019-04-23T01:46:21.752Z,4.87
2019-04-23T01:51:38.155Z,4.27
2019-04-23T01:53:58.670Z,5.37
2019-04-23T01:56:30.331Z,4.93
2019-04-23T01:59:06.553Z,5.30
2019-04-23T02:01:43.271Z,4.97
2019-04-23T02:04:18.878Z,4.90
2019-04-23T02:06:45.474Z,4.40
2019-04-23T02:09:18.457Z,4.07
2019-04-23T02:12:07.956Z,3.33
2019-04-23T02:14:21.342Z,4.87
2019-04-23T02:16:55.919Z,4.63
2019-04-23T02:19:29.241Z,4.33
2019-04-23T02:22:05.060Z,4.07
2019-04-23T02:24:45.708Z,2.57
2019-04-23T02:27:13.302Z,4.37
2019-04-23T02:37:45.747Z,4.87
2019-04-23T02:43:01.659Z,5.23
2019-04-23T02:45:10.231Z,4.83
2019-04-23T02:47:46.870Z,4.50
2019-04-23T02:50:33.598Z,5.27
2019-04-23T02:52:49.881Z,4.00
2019-04-23T02:57:50.395Z,4.13
2019-04-23T03:00:29.115Z,4.37
2019-04-23T03:02:58.226Z,4.33
2019-04-23T03:05:26.423Z,3.80
2019-04-23T03:10:40.417Z,3.83
2019-04-23T03:16:06.290Z,2.73
2019-04-23T03:18:44.475Z,3.97
2019-04-23T03:24:06.809Z,4.67
2019-04-23T03:33:04.080Z,4.57
2019-04-23T03:37:04.059Z,3.90
2019-04-23T03:39:19.168Z,4.87
2019-04-23T03:41:48.565Z,5.57
2019-04-23T03:44:14.056Z,4.33
2019-04-23T03:46:46.341Z,4.20
2019-04-23T03:49:13.406Z,5.00
2019-04-23T03:52:07.655Z,4.07
2019-04-23T03:54:35.597Z,4.23
2019-04-23T03:59:37.158Z,4.17
2019-04-23T04:04:33.454Z,5.07
2019-04-23T04:14:54.486Z,4.67
2019-04-23T04:17:20.277Z,4.57
2019-04-23T04:22:37.121Z,4.70
2019-04-23T04:25:02.419Z,5.07
2019-04-23T04:27:36.573Z,4.43
2019-04-23T04:33:00.483Z,4.50
2019-04-23T04:40:23.264Z,4.53
2019-04-23T04:42:45.032Z,5.00
2019-04-23T04:45:34.497Z,5.17
2019-04-23T04:47:45.051Z,5.37
2019-04-23T04:50:16.876Z,5.13
2019-04-23T04:55:26.616Z,4.30
2019-04-23T05:00:44.036Z,4.80
2019-04-23T05:08:13.799Z,5.17
2019-04-23T05:15:53.894Z,5.63
2019-04-23T05:19:04.154Z,5.90
2019-04-23T05:21:37.051Z,6.10
2019-04-23T05:24:01.533Z,5.47
2019-04-23T05:29:09.731Z,5.53
2019-04-23T05:31:23.303Z,5.17
2019-04-23T05:33:57.900Z,4.87
2019-04-23T05:36:32.278Z,5.03
2019-04-23T05:39:07.568Z,4.67
2019-04-23T05:41:36.818Z,5.00
2019-04-23T05:44:14.530Z,4.50
2019-04-23T05:49:15.465Z,4.20
2019-04-23T05:51:50.844Z,4.73
2019-04-23T05:54:22.618Z,4.40
2019-04-23T05:56:54.128Z,4.55
2019-04-23T05:59:28.122Z,4.80
2019-04-23T06:01:58.620Z,4.42
2019-04-23T06:04:32.942Z,4.45
2019-04-23T06:07:17.050Z,3.50
2019-04-23T06:09:31.267Z,4.65
2019-04-23T06:12:19.034Z,4.70
2019-04-23T06:17:19.843Z,4.30
2019-04-23T06:19:52.584Z,4.85
2019-04-23T06:22:30.128Z,4.65
2019-04-23T06:25:01.261Z,4.28
2019-04-23T06:27:27.683Z,4.62
2019-04-23T06:30:20.829Z,4.12
2019-04-23T06:32:37.982Z,4.65
2019-04-23T06:35:07.882Z,4.60
2019-04-23T06:38:04.467Z,4.33
2019-04-23T06:40:13.971Z,4.22
2019-04-23T06:43:04.758Z,3.62
2019-04-23T06:48:18.296Z,3.90
2019-04-23T06:50:50.870Z,4.35
2019-04-23T06:53:17.996Z,3.72
2019-04-23T06:55:52.000Z,3.98
2019-04-23T06:58:26.286Z,3.67
2019-04-23T07:00:59.184Z,4.47
2019-04-23T07:03:31.228Z,3.72
2019-04-23T07:06:17.290Z,3.75
2019-04-23T07:11:23.305Z,4.05
2019-04-23T07:13:53.228Z,3.77
2019-04-23T07:16:17.916Z,3.80
2019-04-23T07:21:23.546Z,3.92
2019-04-23T07:29:08.513Z,3.90
2019-04-23T07:31:46.762Z,4.17
2019-04-23T07:34:10.167Z,3.87
2019-04-23T07:36:40.602Z,4.55
2019-04-23T07:39:43.102Z,3.80
2019-04-23T07:42:24.935Z,4.03
2019-04-23T07:47:54.380Z,2.98
2019-04-23T07:50:41.234Z,3.35
2019-04-23T07:53:08.911Z,3.47
2019-04-23T07:55:34.373Z,3.65
2019-04-23T07:58:06.503Z,3.92
2019-04-23T08:00:44.371Z,4.08
2019-04-23T08:03:14.426Z,4.05
2019-04-23T08:08:06.738Z,3.87
2019-04-23T08:13:21.657Z,4.15
2019-04-23T08:15:46.486Z,3.72
2019-04-23T08:18:29.751Z,3.92
2019-04-23T08:20:54.107Z,3.65
2019-04-23T08:24:02.249Z,3.85
2019-04-23T08:26:38.113Z,4.40
2019-04-23T08:29:13.951Z,3.77
2019-04-23T08:31:50.392Z,4.10
2019-04-23T08:34:28.444Z,3.62
2019-04-23T08:36:48.575Z,3.15
2019-04-23T08:39:27.799Z,3.72
2019-04-23T08:42:12.494Z,4.12
2019-04-23T08:47:22.954Z,4.33
2019-04-23T08:49:53.673Z,4.28
2019-04-23T08:52:25.534Z,4.05
2019-04-23T08:55:00.876Z,3.77
2019-04-23T08:57:31.924Z,3.05
2019-04-23T09:00:05.644Z,5.10
2019-04-23T09:07:51.279Z,4.37
2019-04-23T09:10:23.273Z,4.10
2019-04-23T09:12:58.763Z,4.10
2019-04-23T09:15:26.297Z,3.98
2019-04-23T09:17:57.710Z,4.30
2019-04-23T09:20:29.349Z,4.35
2019-04-23T09:22:59.673Z,3.95
2019-04-23T09:25:43.676Z,3.62
2019-04-23T09:28:13.423Z,3.37
2019-04-23T09:30:44.121Z,4.30
2019-04-23T09:33:31.099Z,3.87
2019-04-23T09:36:13.557Z,4.62
2019-04-23T09:39:12.743Z,5.30
2019-04-23T09:42:02.222Z,4.97
2019-04-23T09:48:04.796Z,4.80
2019-04-23T09:50:49.373Z,4.45
2019-04-23T09:55:41.931Z,4.37
2019-04-23T09:58:17.597Z,4.10
2019-04-23T10:01:20.515Z,3.65
2019-04-23T10:03:38.200Z,4.33
2019-04-23T10:06:05.466Z,4.03
2019-04-23T10:08:35.375Z,4.72
2019-04-23T10:11:00.300Z,5.20
2019-04-23T10:13:31.681Z,4.10
2019-04-23T10:16:04.320Z,4.10
2019-04-23T10:18:35.330Z,4.62
2019-04-23T10:21:07.594Z,4.22
2019-04-23T10:23:39.070Z,4.25
2019-04-23T10:26:10.154Z,4.60
2019-04-23T10:28:54.050Z,4.42
2019-04-23T10:31:26.901Z,4.83
2019-04-23T10:33:58.073Z,4.67
2019-04-23T10:36:31.962Z,4.17
2019-04-23T10:39:09.609Z,4.50
2019-04-23T10:41:38.462Z,4.53
2019-04-23T10:44:38.642Z,4.58
2019-04-23T10:48:03.301Z,4.42
2019-04-23T10:50:46.109Z,4.58
2019-04-23T10:55:55.918Z,5.12
2019-04-23T10:58:25.148Z,5.10
2019-04-23T11:01:02.130Z,5.03
2019-04-23T11:06:06.876Z,3.80
2019-04-23T11:08:38.375Z,4.78
2019-04-23T11:13:48.760Z,4.35
2019-04-23T11:16:45.986Z,4.05
2019-04-23T11:18:59.424Z,4.00
2019-04-23T11:21:28.688Z,4.97
2019-04-23T11:24:02.551Z,4.60
2019-04-23T11:26:34.509Z,4.55
2019-04-23T11:29:06.988Z,4.53
2019-04-23T11:31:35.347Z,5.47
2019-04-23T11:34:14.350Z,4.28
2019-04-23T11:39:05.626Z,4.87
2019-04-23T11:44:18.819Z,4.20
2019-04-23T11:49:51.665Z,4.17
2019-04-23T11:54:25.693Z,4.12
2019-04-23T11:59:36.034Z,4.72
2019-04-23T12:02:29.350Z,4.78
2019-04-23T12:07:57.667Z,4.75
2019-04-23T12:10:51.910Z,4.00
2019-04-23T12:13:21.348Z,4.28
2019-04-23T12:15:46.115Z,5.58
2019-04-23T12:18:28.681Z,4.83
2019-04-23T12:21:05.923Z,5.50
2019-04-23T12:23:48.579Z,4.47
2019-04-23T12:26:19.735Z,4.97
2019-04-23T12:31:18.207Z,4.47
2019-04-23T12:33:57.414Z,4.22
2019-04-23T12:36:37.701Z,4.10
2019-04-23T12:39:04.383Z,4.90
2019-04-23T12:41:45.507Z,4.80
2019-04-23T12:44:10.680Z,5.67
2019-04-23T12:47:02.612Z,5.00
2019-04-23T12:49:35.673Z,5.03
2019-04-23T12:51:55.973Z,4.45
2019-04-23T12:54:38.005Z,3.27
2019-04-23T12:57:14.775Z,3.95
2019-04-23T12:59:30.934Z,3.77
2019-04-23T13:02:03.358Z,4.00
2019-04-23T13:04:37.906Z,4.00
2019-04-23T13:07:08.454Z,3.83
2019-04-23T13:09:48.819Z,3.92
2019-04-23T13:12:20.292Z,3.85
2019-04-23T13:14:49.542Z,3.65
2019-04-23T13:17:29.681Z,3.92
2019-04-23T13:19:53.648Z,4.17
2019-04-23T13:22:37.443Z,4.15
2019-04-23T13:25:17.916Z,4.15
2019-04-23T13:27:57.187Z,3.77
2019-04-23T13:30:54.268Z,3.58
2019-04-23T13:33:02.983Z,3.75
2019-04-23T13:38:27.599Z,4.05
2019-04-23T13:43:12.243Z,3.33
2019-04-23T13:45:59.983Z,3.08
2019-04-23T13:53:29.076Z,3.37
2019-04-23T13:55:47.138Z,3.80
2019-04-23T13:58:22.610Z,3.30
2019-04-23T14:03:35.541Z,3.90
2019-04-23T14:06:18.004Z,3.72
2019-04-23T14:11:24.746Z,4.00
2019-04-23T14:24:19.867Z,2.95
2019-04-23T14:29:02.179Z,3.60
2019-04-23T14:31:36.986Z,4.00
2019-04-23T14:34:19.051Z,2.98
2019-04-23T14:36:42.828Z,3.33
2019-04-23T14:39:22.251Z,3.77
2019-04-23T14:41:42.521Z,3.83
2019-04-23T14:44:20.141Z,3.50
2019-04-23T14:47:05.027Z,3.87
2019-04-23T14:52:14.454Z,3.65
2019-04-23T14:55:25.281Z,3.77
2019-04-23T14:57:26.190Z,4.45
2019-04-23T14:59:54.005Z,4.58
2019-04-23T15:02:25.729Z,4.72
2019-04-23T15:05:03.621Z,3.72
2019-04-23T15:10:10.437Z,3.92
2019-04-23T15:12:55.639Z,4.05
2019-04-23T15:17:40.662Z,4.87
2019-04-23T15:20:17.802Z,3.87
2019-04-23T15:23:06.907Z,3.75
2019-04-23T15:25:36.560Z,3.67
2019-04-23T15:30:23.088Z,3.60
2019-04-23T15:35:43.524Z,3.67
2019-04-23T15:38:26.751Z,3.62
2019-04-23T15:41:01.812Z,3.15
2019-04-23T15:43:14.573Z,3.58
2019-04-23T15:45:50.117Z,3.47
2019-04-23T15:48:19.197Z,4.12
2019-04-23T15:50:54.995Z,5.60
2019-04-23T15:53:19.681Z,4.12
2019-04-23T15:55:59.735Z,3.25
2019-04-23T15:58:37.067Z,3.47
2019-04-23T16:01:15.411Z,2.70
2019-04-23T16:03:20.539Z,3.27
2019-04-23T16:05:53.004Z,2.80
2019-04-23T16:09:05.486Z,3.25
2019-04-23T16:11:44.149Z,3.15
2019-04-23T16:16:37.387Z,2.92
2019-04-23T16:24:20.507Z,4.37
2019-04-23T16:27:09.394Z,3.60
2019-04-23T16:29:48.715Z,3.98
2019-04-23T16:32:14.936Z,3.85
2019-04-23T16:34:58.392Z,3.27
2019-04-23T16:37:22.706Z,4.42
2019-04-23T16:40:03.395Z,3.75
2019-04-23T16:42:29.290Z,4.37
2019-04-23T16:45:12.447Z,3.30
2019-04-23T16:47:28.487Z,3.65
2019-04-23T16:52:32.846Z,3.80
2019-04-23T16:55:24.049Z,3.55
2019-04-23T16:57:51.952Z,3.58
2019-04-23T17:00:26.976Z,3.90
2019-04-23T17:02:56.065Z,3.75
2019-04-23T17:05:24.833Z,3.77
2019-04-23T17:08:28.712Z,3.62
2019-04-23T17:10:31.604Z,3.95
2019-04-23T17:13:07.192Z,4.17
2019-04-23T17:15:50.470Z,3.50
2019-04-23T17:18:11.668Z,3.87
2019-04-23T17:20:48.902Z,3.42
2019-04-23T17:23:27.423Z,3.27
2019-04-23T17:25:51.772Z,3.00
2019-04-23T17:28:21.697Z,3.83
2019-04-23T17:31:18.828Z,4.22
2019-04-23T17:33:38.276Z,3.05
2019-04-23T17:39:02.788Z,3.25
2019-04-23T17:47:28.559Z,3.98
2019-04-23T17:50:10.744Z,3.72
2019-04-23T17:52:28.128Z,3.70
2019-04-23T17:55:01.750Z,3.65
2019-04-23T18:00:19.526Z,3.42
2019-04-23T18:02:55.483Z,3.50
2019-04-23T18:12:51.453Z,2.83
2019-04-23T18:15:17.418Z,3.65
2019-04-23T18:17:58.893Z,3.10
2019-04-23T18:21:03.293Z,3.72
2019-04-23T18:23:32.660Z,3.70
2019-04-23T18:26:14.184Z,3.72
2019-04-23T18:28:45.866Z,3.27
2019-04-23T18:31:34.619Z,3.67
2019-04-23T18:34:16.748Z,2.85
2019-04-23T18:36:37.137Z,3.55
2019-04-23T18:39:12.353Z,3.58
2019-04-23T18:41:50.549Z,3.50
2019-04-23T18:44:22.068Z,3.70
2019-04-23T18:46:58.835Z,3.60
2019-04-23T18:49:39.530Z,3.50
2019-04-23T18:52:01.445Z,3.27
2019-04-23T18:54:35.162Z,3.50
2019-04-23T18:59:47.471Z,3.12
2019-04-23T19:02:36.559Z,3.12
2019-04-23T19:05:09.553Z,3.35
2019-04-23T19:08:08.722Z,3.33
2019-04-23T19:10:53.788Z,3.25
2019-04-23T19:13:26.866Z,3.25
2019-04-23T19:15:56.234Z,3.42
2019-04-23T19:18:36.412Z,2.87
2019-04-23T19:21:31.843Z,3.42
2019-04-23T19:23:39.469Z,3.22
2019-04-23T19:26:23.054Z,3.60
2019-04-23T19:28:56.565Z,3.80
2019-04-23T19:31:46.023Z,3.15
2019-04-23T19:34:21.370Z,3.65
2019-04-23T19:39:26.354Z,2.95
2019-04-23T19:44:24.994Z,3.45
2019-04-23T19:49:28.872Z,3.12
2019-04-23T19:51:59.450Z,3.20
2019-04-23T19:57:02.070Z,3.40
2019-04-23T20:04:50.742Z,3.17
2019-04-23T20:12:25.355Z,3.13
2019-04-23T20:14:52.327Z,3.20
2019-04-23T20:19:54.500Z,2.80
2019-04-23T20:22:42.195Z,2.90
2019-04-23T20:25:20.839Z,2.90
2019-04-23T20:30:55.127Z,2.40
2019-04-23T20:35:38.266Z,2.20
2019-04-23T20:43:27.232Z,2.70
2019-04-23T20:48:30.847Z,2.57
2019-04-23T20:50:51.896Z,2.40
2019-04-23T20:53:31.033Z,2.70
2019-04-23T20:56:10.053Z,2.20
2019-04-23T20:58:52.073Z,2.63
2019-04-23T21:01:30.587Z,2.80
2019-04-23T21:04:17.296Z,2.80
2019-04-23T21:06:39.391Z,3.13
2019-04-23T21:09:27.756Z,2.23
2019-04-23T21:11:47.980Z,2.87
2019-04-23T21:16:52.336Z,2.50
2019-04-23T21:19:25.927Z,2.57
2019-04-23T21:22:09.507Z,2.67
2019-04-23T21:24:42.806Z,2.47
2019-04-23T21:27:41.019Z,2.80
2019-04-23T21:32:42.187Z,2.57
2019-04-23T21:35:20.319Z,2.87
2019-04-23T21:37:54.027Z,2.20
2019-04-23T21:40:59.188Z,2.30
2019-04-23T21:43:16.273Z,2.00
2019-04-23T21:46:00.048Z,2.50
2019-04-23T21:48:31.319Z,2.40
2019-04-23T21:53:33.145Z,2.83
2019-04-23T21:56:08.569Z,2.20
2019-04-23T21:58:49.162Z,2.57
2019-04-23T22:01:28.219Z,2.40
2019-04-23T22:06:30.625Z,2.50
2019-04-23T22:09:10.979Z,2.17
2019-04-23T22:16:41.042Z,2.30
2019-04-23T22:21:47.504Z,3.47
2019-04-23T22:24:16.589Z,2.10
2019-04-23T22:29:28.141Z,2.80
2019-04-23T22:37:04.613Z,3.10
2019-04-23T22:39:34.381Z,3.90
2019-04-23T22:42:03.189Z,4.43
2019-04-23T22:44:39.159Z,3.60
2019-04-23T22:47:06.084Z,4.60
2019-04-23T22:49:56.945Z,3.53
2019-04-23T22:52:21.579Z,3.67
2019-04-23T22:57:56.681Z,4.07
2019-04-23T23:03:27.168Z,3.77
2019-04-23T23:13:28.428Z,3.97
2019-04-23T23:16:01.756Z,4.27
2019-04-23T23:21:08.005Z,4.03
2019-04-23T23:23:34.394Z,4.20
2019-04-23T23:26:09.862Z,4.40
2019-04-23T23:28:42.528Z,3.87
2019-04-23T23:33:47.134Z,4.23
2019-04-23T23:39:00.378Z,4.13
2019-04-23T23:41:28.791Z,3.87
2019-04-23T23:44:26.347Z,3.93
2019-04-23T23:46:39.277Z,4.00
2019-04-23T23:49:03.176Z,3.87
2019-04-23T23:54:21.540Z,4.10
2019-04-23T23:56:49.840Z,4.13
